Dinsmore, Canada
Current Conditions -  °F | °C
As of 6:00 PM on Sunday 25 Jan 2015 (Local Time) from CYXE Reporting Station
Scattered Clouds Scattered Clouds  
Wind Chill: 28°   Ceiling: Unl
Heat Index: 36°   Visibility: 15mi
Dew Point: 32°   Wind: 10mph
Humidity: 87%   Direction: 270°W
Pressure: 29.68"   Gusts: NA
Location:  51.33°N, 107.45°W
Report Text: CYXE 260000Z 27009KT 15SM FEW110 SCT260 02/M00 A2968 RMK AC1CI2 SLP076
Loading
Personal Weather Stations






























Interactive Weather Map New forecast layout! Learn more

10-Day Weather Forecast

Advertisements
Track Severe Weather on mobile